sensor_id;sensor_type;location;lat;lon;timestamp;P1;durP1;ratioP1;P2;durP2;ratioP2
6356;SDS011;3211;53.452;-2.264;2022-12-01T00:00:59;37.90;;;20.13;;
6356;SDS011;3211;53.452;-2.264;2022-12-01T00:03:29;44.80;;;20.17;;
6356;SDS011;3211;53.452;-2.264;2022-12-01T00:05:57;39.60;;;19.40;;
6356;SDS011;3211;53.452;-2.264;2022-12-01T00:08:24;41.30;;;20.27;;
6356;SDS011;3211;53.452;-2.264;2022-12-01T00:10:52;42.90;;;19.73;;
6356;SDS011;3211;53.452;-2.264;2022-12-01T00:13:18;43.57;;;21.33;;
6356;SDS011;3211;53.452;-2.264;2022-12-01T00:15:45;40.37;;;18.50;;
6356;SDS011;3211;53.452;-2.264;2022-12-01T00:18:12;37.73;;;18.40;;
6356;SDS011;3211;53.452;-2.264;2022-12-01T00:20:40;39.23;;;19.17;;
6356;SDS011;3211;53.452;-2.264;2022-12-01T00:23:07;39.67;;;18.00;;
6356;SDS011;3211;53.452;-2.264;2022-12-01T00:25:34;45.43;;;20.60;;
6356;SDS011;3211;53.452;-2.264;2022-12-01T00:28:01;49.97;;;21.20;;
6356;SDS011;3211;53.452;-2.264;2022-12-01T00:30:28;44.37;;;19.47;;
6356;SDS011;3211;53.452;-2.264;2022-12-01T00:32:55;48.17;;;18.10;;
6356;SDS011;3211;53.452;-2.264;2022-12-01T00:35:22;34.20;;;17.23;;
6356;SDS011;3211;53.452;-2.264;2022-12-01T00:37:51;37.07;;;18.07;;
6356;SDS011;3211;53.452;-2.264;2022-12-01T00:40:17;37.37;;;16.60;;
6356;SDS011;3211;53.452;-2.264;2022-12-01T00:42:44;47.63;;;19.97;;
6356;SDS011;3211;53.452;-2.264;2022-12-01T00:45:11;48.33;;;19.10;;
6356;SDS011;3211;53.452;-2.264;2022-12-01T00:47:38;47.07;;;18.77;;
6356;SDS011;3211;53.452;-2.264;2022-12-01T00:50:06;51.10;;;21.10;;
6356;SDS011;3211;53.452;-2.264;2022-12-01T00:52:33;49.33;;;18.33;;
6356;SDS011;3211;53.452;-2.264;2022-12-01T00:55:01;43.50;;;20.17;;
6356;SDS011;3211;53.452;-2.264;2022-12-01T00:57:29;43.53;;;19.70;;
6356;SDS011;3211;53.452;-2.264;2022-12-01T00:59:56;35.40;;;17.30;;
6356;SDS011;3211;53.452;-2.264;2022-12-01T01:02:23;43.03;;;17.90;;
6356;SDS011;3211;53.452;-2.264;2022-12-01T01:04:50;39.03;;;18.40;;
6356;SDS011;3211;53.452;-2.264;2022-12-01T01:07:16;35.37;;;17.07;;
6356;SDS011;3211;53.452;-2.264;2022-12-01T01:09:44;39.60;;;17.03;;
6356;SDS011;3211;53.452;-2.264;2022-12-01T01:12:12;31.07;;;15.33;;
6356;SDS011;3211;53.452;-2.264;2022-12-01T01:14:39;31.77;;;15.57;;
6356;SDS011;3211;53.452;-2.264;2022-12-01T01:17:06;35.23;;;16.80;;
6356;SDS011;3211;53.452;-2.264;2022-12-01T01:19:33;32.90;;;16.33;;
6356;SDS011;3211;53.452;-2.264;2022-12-01T01:22:00;37.23;;;17.23;;
6356;SDS011;3211;53.452;-2.264;2022-12-01T01:24:27;30.10;;;14.90;;
6356;SDS011;3211;53.452;-2.264;2022-12-01T01:26:54;35.40;;;15.90;;
6356;SDS011;3211;53.452;-2.264;2022-12-01T01:29:22;33.10;;;16.10;;
6356;SDS011;3211;53.452;-2.264;2022-12-01T01:31:49;32.57;;;15.77;;
6356;SDS011;3211;53.452;-2.264;2022-12-01T01:34:16;27.30;;;14.47;;
6356;SDS011;3211;53.452;-2.264;2022-12-01T01:36:43;26.80;;;14.07;;
6356;SDS011;3211;53.452;-2.264;2022-12-01T01:39:10;27.53;;;14.07;;
6356;SDS011;3211;53.452;-2.264;2022-12-01T01:41:37;29.03;;;13.50;;
6356;SDS011;3211;53.452;-2.264;2022-12-01T01:47:06;28.83;;;14.67;;
6356;SDS011;3211;53.452;-2.264;2022-12-01T01:49:33;26.50;;;13.80;;
6356;SDS011;3211;53.452;-2.264;2022-12-01T01:52:00;26.43;;;12.30;;
6356;SDS011;3211;53.452;-2.264;2022-12-01T01:54:30;29.53;;;13.80;;
6356;SDS011;3211;53.452;-2.264;2022-12-01T01:57:01;27.10;;;12.83;;
6356;SDS011;3211;53.452;-2.264;2022-12-01T01:59:32;29.53;;;14.00;;
6356;SDS011;3211;53.452;-2.264;2022-12-01T02:02:03;27.23;;;13.33;;
6356;SDS011;3211;53.452;-2.264;2022-12-01T02:04:33;25.97;;;12.50;;
6356;SDS011;3211;53.452;-2.264;2022-12-01T02:07:02;27.67;;;13.97;;
6356;SDS011;3211;53.452;-2.264;2022-12-01T02:09:30;26.07;;;12.00;;
6356;SDS011;3211;53.452;-2.264;2022-12-01T02:12:00;28.83;;;12.57;;
6356;SDS011;3211;53.452;-2.264;2022-12-01T02:14:40;25.33;;;13.13;;
6356;SDS011;3211;53.452;-2.264;2022-12-01T02:17:26;28.63;;;13.70;;
6356;SDS011;3211;53.452;-2.264;2022-12-01T02:23:05;22.87;;;12.37;;
6356;SDS011;3211;53.452;-2.264;2022-12-01T02:25:52;28.57;;;13.50;;
6356;SDS011;3211;53.452;-2.264;2022-12-01T02:28:41;27.57;;;13.33;;
6356;SDS011;3211;53.452;-2.264;2022-12-01T02:31:23;25.93;;;12.10;;
6356;SDS011;3211;53.452;-2.264;2022-12-01T02:33:55;30.17;;;13.70;;
6356;SDS011;3211;53.452;-2.264;2022-12-01T02:36:28;27.77;;;13.50;;
6356;SDS011;3211;53.452;-2.264;2022-12-01T02:39:03;26.23;;;12.50;;
6356;SDS011;3211;53.452;-2.264;2022-12-01T02:41:34;37.03;;;14.40;;
6356;SDS011;3211;53.452;-2.264;2022-12-01T02:44:07;32.30;;;14.47;;
6356;SDS011;3211;53.452;-2.264;2022-12-01T02:46:38;33.03;;;14.50;;
6356;SDS011;3211;53.452;-2.264;2022-12-01T02:49:12;32.57;;;13.23;;
6356;SDS011;3211;53.452;-2.264;2022-12-01T02:51:42;34.43;;;13.50;;
6356;SDS011;3211;53.452;-2.264;2022-12-01T02:54:10;34.93;;;14.33;;
6356;SDS011;3211;53.452;-2.264;2022-12-01T02:56:39;31.17;;;14.07;;
6356;SDS011;3211;53.452;-2.264;2022-12-01T02:59:10;30.37;;;13.57;;
6356;SDS011;3211;53.452;-2.264;2022-12-01T03:01:42;32.60;;;14.83;;
6356;SDS011;3211;53.452;-2.264;2022-12-01T03:04:22;35.30;;;14.03;;
6356;SDS011;3211;53.452;-2.264;2022-12-01T03:07:09;30.33;;;14.33;;
6356;SDS011;3211;53.452;-2.264;2022-12-01T03:09:49;33.80;;;13.43;;
6356;SDS011;3211;53.452;-2.264;2022-12-01T03:12:26;28.50;;;13.67;;
6356;SDS011;3211;53.452;-2.264;2022-12-01T03:14:59;32.83;;;14.30;;
6356;SDS011;3211;53.452;-2.264;2022-12-01T03:17:35;31.43;;;13.63;;
6356;SDS011;3211;53.452;-2.264;2022-12-01T03:20:08;25.60;;;12.57;;
6356;SDS011;3211;53.452;-2.264;2022-12-01T03:22:40;29.00;;;12.80;;
6356;SDS011;3211;53.452;-2.264;2022-12-01T03:25:13;26.90;;;13.20;;
6356;SDS011;3211;53.452;-2.264;2022-12-01T03:27:43;28.43;;;14.87;;
6356;SDS011;3211;53.452;-2.264;2022-12-01T03:30:12;30.07;;;12.90;;
6356;SDS011;3211;53.452;-2.264;2022-12-01T03:32:42;30.97;;;13.90;;
6356;SDS011;3211;53.452;-2.264;2022-12-01T03:35:13;27.07;;;12.97;;
6356;SDS011;3211;53.452;-2.264;2022-12-01T03:37:44;28.10;;;14.10;;
6356;SDS011;3211;53.452;-2.264;2022-12-01T03:40:16;24.73;;;12.90;;
6356;SDS011;3211;53.452;-2.264;2022-12-01T03:42:48;28.13;;;13.30;;
6356;SDS011;3211;53.452;-2.264;2022-12-01T03:45:19;30.93;;;13.60;;
6356;SDS011;3211;53.452;-2.264;2022-12-01T03:47:53;35.93;;;15.23;;
6356;SDS011;3211;53.452;-2.264;2022-12-01T03:50:20;29.37;;;14.30;;
6356;SDS011;3211;53.452;-2.264;2022-12-01T03:52:52;23.30;;;12.50;;
6356;SDS011;3211;53.452;-2.264;2022-12-01T03:55:24;25.43;;;12.67;;
6356;SDS011;3211;53.452;-2.264;2022-12-01T03:57:54;24.00;;;13.10;;
6356;SDS011;3211;53.452;-2.264;2022-12-01T04:00:26;32.00;;;13.20;;
6356;SDS011;3211;53.452;-2.264;2022-12-01T04:02:57;23.53;;;12.70;;
6356;SDS011;3211;53.452;-2.264;2022-12-01T04:05:26;25.20;;;13.37;;
6356;SDS011;3211;53.452;-2.264;2022-12-01T04:07:53;25.90;;;12.87;;
6356;SDS011;3211;53.452;-2.264;2022-12-01T04:10:20;25.13;;;12.30;;
6356;SDS011;3211;53.452;-2.264;2022-12-01T04:12:47;26.70;;;13.13;;
6356;SDS011;3211;53.452;-2.264;2022-12-01T04:15:13;23.70;;;12.30;;
6356;SDS011;3211;53.452;-2.264;2022-12-01T04:17:41;24.40;;;12.60;;
6356;SDS011;3211;53.452;-2.264;2022-12-01T04:20:11;30.90;;;13.47;;
6356;SDS011;3211;53.452;-2.264;2022-12-01T04:22:40;27.23;;;13.33;;
6356;SDS011;3211;53.452;-2.264;2022-12-01T04:25:07;25.77;;;12.60;;
6356;SDS011;3211;53.452;-2.264;2022-12-01T04:27:36;29.40;;;13.93;;
6356;SDS011;3211;53.452;-2.264;2022-12-01T04:30:04;25.37;;;12.83;;
6356;SDS011;3211;53.452;-2.264;2022-12-01T04:32:35;22.67;;;13.17;;
6356;SDS011;3211;53.452;-2.264;2022-12-01T04:35:03;24.57;;;12.10;;
6356;SDS011;3211;53.452;-2.264;2022-12-01T04:37:33;26.63;;;13.60;;
6356;SDS011;3211;53.452;-2.264;2022-12-01T04:40:00;27.20;;;13.13;;
6356;SDS011;3211;53.452;-2.264;2022-12-01T04:42:27;28.13;;;14.13;;
6356;SDS011;3211;53.452;-2.264;2022-12-01T04:44:54;30.00;;;15.40;;
6356;SDS011;3211;53.452;-2.264;2022-12-01T04:47:22;28.07;;;14.53;;
6356;SDS011;3211;53.452;-2.264;2022-12-01T04:49:49;23.33;;;12.57;;
6356;SDS011;3211;53.452;-2.264;2022-12-01T04:52:16;29.20;;;12.93;;
6356;SDS011;3211;53.452;-2.264;2022-12-01T04:54:44;28.60;;;14.50;;
6356;SDS011;3211;53.452;-2.264;2022-12-01T04:57:11;29.20;;;13.80;;
6356;SDS011;3211;53.452;-2.264;2022-12-01T04:59:38;28.67;;;13.53;;
6356;SDS011;3211;53.452;-2.264;2022-12-01T05:02:05;24.47;;;14.10;;
6356;SDS011;3211;53.452;-2.264;2022-12-01T05:04:32;27.83;;;13.33;;
6356;SDS011;3211;53.452;-2.264;2022-12-01T05:07:02;28.30;;;13.93;;
6356;SDS011;3211;53.452;-2.264;2022-12-01T05:09:29;27.60;;;13.30;;
6356;SDS011;3211;53.452;-2.264;2022-12-01T05:11:57;31.00;;;15.97;;
6356;SDS011;3211;53.452;-2.264;2022-12-01T05:14:25;26.13;;;13.13;;
6356;SDS011;3211;53.452;-2.264;2022-12-01T05:16:52;30.57;;;14.40;;
6356;SDS011;3211;53.452;-2.264;2022-12-01T05:19:20;28.13;;;14.23;;
6356;SDS011;3211;53.452;-2.264;2022-12-01T05:22:04;25.47;;;13.13;;
6356;SDS011;3211;53.452;-2.264;2022-12-01T05:24:31;30.17;;;15.03;;
6356;SDS011;3211;53.452;-2.264;2022-12-01T05:27:00;28.70;;;14.73;;
6356;SDS011;3211;53.452;-2.264;2022-12-01T05:29:27;30.33;;;13.73;;
6356;SDS011;3211;53.452;-2.264;2022-12-01T05:31:57;25.87;;;13.90;;
6356;SDS011;3211;53.452;-2.264;2022-12-01T05:34:24;34.40;;;15.03;;
6356;SDS011;3211;53.452;-2.264;2022-12-01T05:36:51;29.40;;;13.57;;
6356;SDS011;3211;53.452;-2.264;2022-12-01T05:39:18;30.73;;;14.37;;
6356;SDS011;3211;53.452;-2.264;2022-12-01T05:41:45;29.40;;;15.23;;
6356;SDS011;3211;53.452;-2.264;2022-12-01T05:44:14;31.30;;;15.30;;
6356;SDS011;3211;53.452;-2.264;2022-12-01T05:46:41;30.07;;;15.37;;
6356;SDS011;3211;53.452;-2.264;2022-12-01T05:49:08;27.73;;;14.93;;
6356;SDS011;3211;53.452;-2.264;2022-12-01T05:51:35;30.90;;;14.03;;
6356;SDS011;3211;53.452;-2.264;2022-12-01T05:54:02;33.47;;;14.87;;
6356;SDS011;3211;53.452;-2.264;2022-12-01T05:56:29;26.77;;;14.13;;
6356;SDS011;3211;53.452;-2.264;2022-12-01T05:58:56;31.20;;;14.73;;
6356;SDS011;3211;53.452;-2.264;2022-12-01T06:01:24;35.40;;;16.13;;
6356;SDS011;3211;53.452;-2.264;2022-12-01T06:03:52;35.93;;;16.50;;
6356;SDS011;3211;53.452;-2.264;2022-12-01T06:06:19;32.17;;;15.17;;
6356;SDS011;3211;53.452;-2.264;2022-12-01T06:08:47;32.57;;;15.17;;
6356;SDS011;3211;53.452;-2.264;2022-12-01T06:11:14;29.10;;;15.20;;
6356;SDS011;3211;53.452;-2.264;2022-12-01T06:13:41;30.73;;;15.43;;
6356;SDS011;3211;53.452;-2.264;2022-12-01T06:16:08;28.07;;;16.30;;
6356;SDS011;3211;53.452;-2.264;2022-12-01T06:18:37;32.03;;;15.90;;
6356;SDS011;3211;53.452;-2.264;2022-12-01T06:21:05;23.60;;;14.20;;
6356;SDS011;3211;53.452;-2.264;2022-12-01T06:23:32;31.10;;;15.60;;
6356;SDS011;3211;53.452;-2.264;2022-12-01T06:26:00;29.27;;;15.10;;
6356;SDS011;3211;53.452;-2.264;2022-12-01T06:28:27;32.27;;;17.43;;
6356;SDS011;3211;53.452;-2.264;2022-12-01T06:30:54;30.57;;;15.70;;
6356;SDS011;3211;53.452;-2.264;2022-12-01T06:33:21;29.20;;;15.40;;
6356;SDS011;3211;53.452;-2.264;2022-12-01T06:35:55;28.70;;;16.57;;
6356;SDS011;3211;53.452;-2.264;2022-12-01T06:38:22;34.40;;;17.00;;
6356;SDS011;3211;53.452;-2.264;2022-12-01T06:40:49;29.27;;;15.90;;
6356;SDS011;3211;53.452;-2.264;2022-12-01T06:43:16;30.30;;;15.80;;
6356;SDS011;3211;53.452;-2.264;2022-12-01T06:45:43;35.47;;;17.10;;
6356;SDS011;3211;53.452;-2.264;2022-12-01T06:48:10;30.73;;;16.40;;
6356;SDS011;3211;53.452;-2.264;2022-12-01T06:50:38;33.97;;;16.67;;
6356;SDS011;3211;53.452;-2.264;2022-12-01T06:53:06;40.10;;;18.90;;
6356;SDS011;3211;53.452;-2.264;2022-12-01T06:55:34;38.23;;;17.73;;
6356;SDS011;3211;53.452;-2.264;2022-12-01T06:58:02;33.00;;;16.50;;
6356;SDS011;3211;53.452;-2.264;2022-12-01T07:00:29;33.63;;;18.53;;
6356;SDS011;3211;53.452;-2.264;2022-12-01T07:02:56;36.40;;;18.40;;
6356;SDS011;3211;53.452;-2.264;2022-12-01T07:05:24;33.73;;;18.63;;
6356;SDS011;3211;53.452;-2.264;2022-12-01T07:07:51;33.23;;;17.93;;
6356;SDS011;3211;53.452;-2.264;2022-12-01T07:10:20;34.77;;;17.20;;
6356;SDS011;3211;53.452;-2.264;2022-12-01T07:12:47;35.37;;;18.03;;
6356;SDS011;3211;53.452;-2.264;2022-12-01T07:15:14;34.80;;;18.43;;
6356;SDS011;3211;53.452;-2.264;2022-12-01T07:17:41;32.50;;;17.97;;
6356;SDS011;3211;53.452;-2.264;2022-12-01T07:20:08;33.50;;;16.67;;
6356;SDS011;3211;53.452;-2.264;2022-12-01T07:22:36;32.17;;;18.90;;
6356;SDS011;3211;53.452;-2.264;2022-12-01T07:25:04;40.83;;;18.80;;
6356;SDS011;3211;53.452;-2.264;2022-12-01T07:27:33;34.70;;;19.90;;
6356;SDS011;3211;53.452;-2.264;2022-12-01T07:30:00;33.77;;;17.73;;
6356;SDS011;3211;53.452;-2.264;2022-12-01T07:32:28;34.33;;;19.50;;
6356;SDS011;3211;53.452;-2.264;2022-12-01T07:34:55;36.67;;;19.53;;
6356;SDS011;3211;53.452;-2.264;2022-12-01T07:37:22;42.40;;;20.60;;
6356;SDS011;3211;53.452;-2.264;2022-12-01T07:39:49;34.53;;;19.93;;
6356;SDS011;3211;53.452;-2.264;2022-12-01T07:42:16;32.70;;;18.73;;
6356;SDS011;3211;53.452;-2.264;2022-12-01T07:44:44;39.90;;;19.90;;
6356;SDS011;3211;53.452;-2.264;2022-12-01T07:47:12;35.10;;;19.50;;
6356;SDS011;3211;53.452;-2.264;2022-12-01T07:49:39;35.47;;;20.63;;
6356;SDS011;3211;53.452;-2.264;2022-12-01T07:52:06;44.07;;;21.70;;
6356;SDS011;3211;53.452;-2.264;2022-12-01T07:54:33;42.80;;;20.30;;
6356;SDS011;3211;53.452;-2.264;2022-12-01T07:57:00;38.83;;;19.90;;
6356;SDS011;3211;53.452;-2.264;2022-12-01T07:59:28;36.10;;;20.33;;
6356;SDS011;3211;53.452;-2.264;2022-12-01T08:01:56;37.30;;;21.30;;
6356;SDS011;3211;53.452;-2.264;2022-12-01T08:04:23;34.07;;;19.87;;
6356;SDS011;3211;53.452;-2.264;2022-12-01T08:06:50;37.70;;;19.37;;
6356;SDS011;3211;53.452;-2.264;2022-12-01T08:09:17;34.20;;;20.93;;
6356;SDS011;3211;53.452;-2.264;2022-12-01T08:11:44;34.83;;;21.90;;
6356;SDS011;3211;53.452;-2.264;2022-12-01T08:14:11;38.90;;;21.40;;
6356;SDS011;3211;53.452;-2.264;2022-12-01T08:16:38;38.63;;;21.30;;
6356;SDS011;3211;53.452;-2.264;2022-12-01T08:19:07;38.70;;;22.17;;
6356;SDS011;3211;53.452;-2.264;2022-12-01T08:21:35;38.20;;;21.30;;
6356;SDS011;3211;53.452;-2.264;2022-12-01T08:24:03;38.33;;;22.43;;
6356;SDS011;3211;53.452;-2.264;2022-12-01T08:26:30;37.30;;;21.23;;
6356;SDS011;3211;53.452;-2.264;2022-12-01T08:28:57;38.40;;;20.67;;
6356;SDS011;3211;53.452;-2.264;2022-12-01T08:31:25;40.37;;;21.07;;
6356;SDS011;3211;53.452;-2.264;2022-12-01T08:33:54;37.07;;;21.30;;
6356;SDS011;3211;53.452;-2.264;2022-12-01T08:36:23;41.37;;;22.57;;
6356;SDS011;3211;53.452;-2.264;2022-12-01T08:38:52;44.20;;;22.57;;
6356;SDS011;3211;53.452;-2.264;2022-12-01T08:41:20;40.70;;;21.77;;
6356;SDS011;3211;53.452;-2.264;2022-12-01T08:43:48;45.27;;;23.47;;
6356;SDS011;3211;53.452;-2.264;2022-12-01T08:46:15;45.30;;;23.30;;
6356;SDS011;3211;53.452;-2.264;2022-12-01T08:48:42;41.70;;;22.47;;
6356;SDS011;3211;53.452;-2.264;2022-12-01T08:51:10;38.90;;;22.77;;
6356;SDS011;3211;53.452;-2.264;2022-12-01T08:53:40;42.77;;;23.57;;
6356;SDS011;3211;53.452;-2.264;2022-12-01T08:56:09;43.70;;;24.63;;
6356;SDS011;3211;53.452;-2.264;2022-12-01T08:58:38;48.00;;;24.23;;
6356;SDS011;3211;53.452;-2.264;2022-12-01T09:01:06;42.43;;;23.27;;
6356;SDS011;3211;53.452;-2.264;2022-12-01T09:03:35;42.73;;;23.67;;
6356;SDS011;3211;53.452;-2.264;2022-12-01T09:06:04;43.70;;;24.17;;
6356;SDS011;3211;53.452;-2.264;2022-12-01T09:08:32;43.70;;;23.73;;
6356;SDS011;3211;53.452;-2.264;2022-12-01T09:11:02;37.50;;;22.90;;
6356;SDS011;3211;53.452;-2.264;2022-12-01T09:13:30;41.13;;;22.43;;
6356;SDS011;3211;53.452;-2.264;2022-12-01T09:16:01;43.53;;;23.07;;
6356;SDS011;3211;53.452;-2.264;2022-12-01T09:18:29;43.37;;;21.50;;
6356;SDS011;3211;53.452;-2.264;2022-12-01T09:20:56;43.00;;;22.90;;
6356;SDS011;3211;53.452;-2.264;2022-12-01T09:23:24;41.20;;;22.13;;
6356;SDS011;3211;53.452;-2.264;2022-12-01T09:25:52;46.37;;;24.20;;
6356;SDS011;3211;53.452;-2.264;2022-12-01T09:28:20;43.07;;;23.70;;
6356;SDS011;3211;53.452;-2.264;2022-12-01T09:30:48;38.20;;;21.13;;
6356;SDS011;3211;53.452;-2.264;2022-12-01T09:33:15;41.00;;;21.73;;
6356;SDS011;3211;53.452;-2.264;2022-12-01T09:35:42;39.33;;;21.70;;
6356;SDS011;3211;53.452;-2.264;2022-12-01T09:38:08;41.63;;;23.40;;
6356;SDS011;3211;53.452;-2.264;2022-12-01T09:40:37;42.00;;;22.07;;
6356;SDS011;3211;53.452;-2.264;2022-12-01T09:43:09;38.23;;;20.90;;
6356;SDS011;3211;53.452;-2.264;2022-12-01T09:45:42;37.27;;;21.13;;
6356;SDS011;3211;53.452;-2.264;2022-12-01T09:48:17;41.83;;;20.43;;
6356;SDS011;3211;53.452;-2.264;2022-12-01T09:50:52;36.67;;;19.30;;
6356;SDS011;3211;53.452;-2.264;2022-12-01T09:53:21;39.20;;;20.97;;
6356;SDS011;3211;53.452;-2.264;2022-12-01T09:55:50;36.40;;;20.43;;
6356;SDS011;3211;53.452;-2.264;2022-12-01T09:58:19;38.37;;;21.03;;
6356;SDS011;3211;53.452;-2.264;2022-12-01T10:00:51;38.43;;;19.50;;
6356;SDS011;3211;53.452;-2.264;2022-12-01T10:03:22;34.50;;;21.00;;
6356;SDS011;3211;53.452;-2.264;2022-12-01T10:05:58;40.07;;;19.83;;
6356;SDS011;3211;53.452;-2.264;2022-12-01T10:08:29;36.43;;;20.63;;
6356;SDS011;3211;53.452;-2.264;2022-12-01T10:11:04;35.97;;;18.93;;
6356;SDS011;3211;53.452;-2.264;2022-12-01T10:13:36;34.97;;;19.67;;
6356;SDS011;3211;53.452;-2.264;2022-12-01T10:16:06;36.07;;;20.70;;
6356;SDS011;3211;53.452;-2.264;2022-12-01T10:18:39;46.90;;;20.50;;
6356;SDS011;3211;53.452;-2.264;2022-12-01T10:21:15;35.10;;;19.63;;
6356;SDS011;3211;53.452;-2.264;2022-12-01T10:23:56;40.57;;;21.60;;
6356;SDS011;3211;53.452;-2.264;2022-12-01T10:26:37;41.13;;;21.80;;
6356;SDS011;3211;53.452;-2.264;2022-12-01T10:29:15;43.23;;;22.00;;
6356;SDS011;3211;53.452;-2.264;2022-12-01T10:31:55;42.80;;;21.13;;
6356;SDS011;3211;53.452;-2.264;2022-12-01T10:34:24;35.73;;;20.07;;
6356;SDS011;3211;53.452;-2.264;2022-12-01T10:36:54;40.17;;;20.27;;
6356;SDS011;3211;53.452;-2.264;2022-12-01T10:39:24;42.93;;;20.43;;
6356;SDS011;3211;53.452;-2.264;2022-12-01T10:41:55;41.33;;;19.90;;
6356;SDS011;3211;53.452;-2.264;2022-12-01T10:44:27;37.53;;;20.10;;
6356;SDS011;3211;53.452;-2.264;2022-12-01T10:46:56;44.47;;;23.00;;
6356;SDS011;3211;53.452;-2.264;2022-12-01T10:49:33;45.77;;;20.60;;
6356;SDS011;3211;53.452;-2.264;2022-12-01T10:52:02;42.00;;;20.77;;
6356;SDS011;3211;53.452;-2.264;2022-12-01T10:54:31;42.33;;;20.87;;
6356;SDS011;3211;53.452;-2.264;2022-12-01T10:57:00;35.83;;;19.10;;
6356;SDS011;3211;53.452;-2.264;2022-12-01T10:59:30;49.30;;;22.77;;
6356;SDS011;3211;53.452;-2.264;2022-12-01T11:02:01;39.07;;;20.33;;
6356;SDS011;3211;53.452;-2.264;2022-12-01T11:04:33;46.23;;;21.33;;
6356;SDS011;3211;53.452;-2.264;2022-12-01T11:07:13;41.63;;;21.40;;
6356;SDS011;3211;53.452;-2.264;2022-12-01T11:09:46;42.57;;;20.80;;
6356;SDS011;3211;53.452;-2.264;2022-12-01T11:12:22;51.47;;;25.37;;
6356;SDS011;3211;53.452;-2.264;2022-12-01T11:14:50;45.90;;;23.47;;
6356;SDS011;3211;53.452;-2.264;2022-12-01T11:17:29;40.67;;;22.03;;
6356;SDS011;3211;53.452;-2.264;2022-12-01T11:19:59;38.77;;;19.67;;
6356;SDS011;3211;53.452;-2.264;2022-12-01T11:22:51;40.87;;;20.40;;
6356;SDS011;3211;53.452;-2.264;2022-12-01T11:25:18;42.30;;;21.00;;
6356;SDS011;3211;53.452;-2.264;2022-12-01T11:27:48;34.00;;;18.13;;
6356;SDS011;3211;53.452;-2.264;2022-12-01T11:30:22;38.60;;;19.33;;
6356;SDS011;3211;53.452;-2.264;2022-12-01T11:32:52;39.17;;;20.90;;
6356;SDS011;3211;53.452;-2.264;2022-12-01T11:35:22;37.47;;;18.33;;
6356;SDS011;3211;53.452;-2.264;2022-12-01T11:37:51;41.60;;;20.20;;
6356;SDS011;3211;53.452;-2.264;2022-12-01T11:40:21;39.63;;;20.60;;
6356;SDS011;3211;53.452;-2.264;2022-12-01T11:42:51;39.77;;;20.87;;
6356;SDS011;3211;53.452;-2.264;2022-12-01T11:45:24;40.63;;;20.37;;
6356;SDS011;3211;53.452;-2.264;2022-12-01T11:48:01;36.23;;;19.90;;
6356;SDS011;3211;53.452;-2.264;2022-12-01T11:50:31;36.03;;;19.07;;
6356;SDS011;3211;53.452;-2.264;2022-12-01T11:53:01;33.07;;;18.27;;
6356;SDS011;3211;53.452;-2.264;2022-12-01T11:55:29;37.90;;;20.80;;
6356;SDS011;3211;53.452;-2.264;2022-12-01T11:57:58;34.50;;;18.70;;
6356;SDS011;3211;53.452;-2.264;2022-12-01T12:00:27;33.50;;;19.50;;
6356;SDS011;3211;53.452;-2.264;2022-12-01T12:05:57;34.57;;;19.20;;
6356;SDS011;3211;53.452;-2.264;2022-12-01T12:08:45;33.93;;;19.40;;
6356;SDS011;3211;53.452;-2.264;2022-12-01T12:11:25;37.30;;;21.20;;
6356;SDS011;3211;53.452;-2.264;2022-12-01T12:14:12;38.80;;;20.80;;
6356;SDS011;3211;53.452;-2.264;2022-12-01T12:16:54;36.20;;;20.23;;
6356;SDS011;3211;53.452;-2.264;2022-12-01T12:19:50;37.40;;;20.03;;
6356;SDS011;3211;53.452;-2.264;2022-12-01T12:22:28;40.33;;;21.23;;
6356;SDS011;3211;53.452;-2.264;2022-12-01T12:25:06;41.23;;;20.57;;
6356;SDS011;3211;53.452;-2.264;2022-12-01T12:27:46;37.67;;;21.13;;
6356;SDS011;3211;53.452;-2.264;2022-12-01T12:30:26;44.10;;;24.57;;
6356;SDS011;3211;53.452;-2.264;2022-12-01T12:35:51;44.17;;;21.37;;
6356;SDS011;3211;53.452;-2.264;2022-12-01T12:38:31;46.93;;;25.40;;
6356;SDS011;3211;53.452;-2.264;2022-12-01T12:41:15;39.70;;;21.53;;
6356;SDS011;3211;53.452;-2.264;2022-12-01T12:43:49;43.40;;;21.80;;
6356;SDS011;3211;53.452;-2.264;2022-12-01T12:46:32;39.70;;;23.30;;
6356;SDS011;3211;53.452;-2.264;2022-12-01T12:51:54;36.13;;;20.20;;
6356;SDS011;3211;53.452;-2.264;2022-12-01T12:54:25;37.10;;;22.47;;
6356;SDS011;3211;53.452;-2.264;2022-12-01T12:56:57;37.57;;;21.13;;
6356;SDS011;3211;53.452;-2.264;2022-12-01T12:59:29;34.90;;;20.10;;
6356;SDS011;3211;53.452;-2.264;2022-12-01T13:02:02;37.70;;;21.37;;
6356;SDS011;3211;53.452;-2.264;2022-12-01T13:04:39;36.03;;;20.50;;
6356;SDS011;3211;53.452;-2.264;2022-12-01T13:07:16;39.70;;;22.60;;
6356;SDS011;3211;53.452;-2.264;2022-12-01T13:09:52;40.40;;;21.30;;
6356;SDS011;3211;53.452;-2.264;2022-12-01T13:12:24;38.27;;;21.03;;
6356;SDS011;3211;53.452;-2.264;2022-12-01T13:14:55;40.53;;;22.70;;
6356;SDS011;3211;53.452;-2.264;2022-12-01T13:17:26;39.27;;;22.93;;
6356;SDS011;3211;53.452;-2.264;2022-12-01T13:19:58;34.90;;;21.00;;
6356;SDS011;3211;53.452;-2.264;2022-12-01T13:22:28;41.23;;;22.73;;
6356;SDS011;3211;53.452;-2.264;2022-12-01T13:24:58;41.40;;;23.47;;
6356;SDS011;3211;53.452;-2.264;2022-12-01T13:27:25;37.53;;;21.93;;
6356;SDS011;3211;53.452;-2.264;2022-12-01T13:29:55;36.70;;;21.90;;
6356;SDS011;3211;53.452;-2.264;2022-12-01T13:32:24;39.00;;;22.17;;
6356;SDS011;3211;53.452;-2.264;2022-12-01T13:34:55;40.43;;;21.87;;
6356;SDS011;3211;53.452;-2.264;2022-12-01T13:37:26;41.93;;;22.13;;
6356;SDS011;3211;53.452;-2.264;2022-12-01T13:40:05;40.83;;;21.10;;
6356;SDS011;3211;53.452;-2.264;2022-12-01T13:42:34;42.30;;;23.80;;
6356;SDS011;3211;53.452;-2.264;2022-12-01T13:45:06;35.30;;;20.23;;
6356;SDS011;3211;53.452;-2.264;2022-12-01T13:47:37;38.47;;;21.57;;
6356;SDS011;3211;53.452;-2.264;2022-12-01T13:53:24;37.97;;;21.13;;
6356;SDS011;3211;53.452;-2.264;2022-12-01T13:55:57;36.07;;;19.73;;
6356;SDS011;3211;53.452;-2.264;2022-12-01T13:58:43;36.63;;;20.23;;
6356;SDS011;3211;53.452;-2.264;2022-12-01T14:04:28;39.10;;;21.90;;
6356;SDS011;3211;53.452;-2.264;2022-12-01T14:09:48;38.07;;;20.67;;
6356;SDS011;3211;53.452;-2.264;2022-12-01T14:12:18;39.20;;;22.13;;
6356;SDS011;3211;53.452;-2.264;2022-12-01T14:14:50;41.20;;;22.80;;
6356;SDS011;3211;53.452;-2.264;2022-12-01T14:17:23;34.67;;;20.83;;
6356;SDS011;3211;53.452;-2.264;2022-12-01T14:19:53;40.70;;;23.63;;
6356;SDS011;3211;53.452;-2.264;2022-12-01T14:22:30;42.60;;;21.87;;
6356;SDS011;3211;53.452;-2.264;2022-12-01T14:25:01;43.00;;;23.50;;
6356;SDS011;3211;53.452;-2.264;2022-12-01T14:27:35;41.97;;;23.40;;
6356;SDS011;3211;53.452;-2.264;2022-12-01T14:36:12;44.10;;;22.73;;
6356;SDS011;3211;53.452;-2.264;2022-12-01T14:38:46;44.10;;;24.50;;
6356;SDS011;3211;53.452;-2.264;2022-12-01T14:41:18;43.30;;;23.60;;
6356;SDS011;3211;53.452;-2.264;2022-12-01T14:43:49;42.10;;;21.27;;
6356;SDS011;3211;53.452;-2.264;2022-12-01T14:46:32;39.33;;;23.80;;
6356;SDS011;3211;53.452;-2.264;2022-12-01T14:49:08;40.10;;;23.73;;
6356;SDS011;3211;53.452;-2.264;2022-12-01T14:51:40;43.53;;;23.00;;
6356;SDS011;3211;53.452;-2.264;2022-12-01T14:54:13;42.50;;;22.67;;
6356;SDS011;3211;53.452;-2.264;2022-12-01T14:56:45;41.47;;;23.07;;
6356;SDS011;3211;53.452;-2.264;2022-12-01T14:59:18;38.87;;;22.30;;
6356;SDS011;3211;53.452;-2.264;2022-12-01T15:01:47;39.80;;;20.57;;
6356;SDS011;3211;53.452;-2.264;2022-12-01T15:04:16;35.73;;;21.10;;
6356;SDS011;3211;53.452;-2.264;2022-12-01T15:06:44;35.70;;;22.20;;
6356;SDS011;3211;53.452;-2.264;2022-12-01T15:09:12;45.07;;;22.83;;
6356;SDS011;3211;53.452;-2.264;2022-12-01T15:11:49;37.30;;;22.70;;
6356;SDS011;3211;53.452;-2.264;2022-12-01T15:14:23;38.90;;;21.60;;
6356;SDS011;3211;53.452;-2.264;2022-12-01T15:16:55;38.27;;;22.57;;
6356;SDS011;3211;53.452;-2.264;2022-12-01T15:19:25;37.77;;;20.27;;
6356;SDS011;3211;53.452;-2.264;2022-12-01T15:21:56;38.13;;;22.23;;